sensor_id;sensor_type;location;lat;lon;timestamp;P1;durP1;ratioP1;P2;durP2;ratioP2
13406;SDS011;6774;48.208;10.766;2024-03-02T00:00:59;6.83;;;6.23;;
13406;SDS011;6774;48.208;10.766;2024-03-02T00:03:27;6.23;;;5.73;;
13406;SDS011;6774;48.208;10.766;2024-03-02T00:05:54;6.13;;;5.63;;
13406;SDS011;6774;48.208;10.766;2024-03-02T00:08:24;6.00;;;5.50;;
13406;SDS011;6774;48.208;10.766;2024-03-02T00:10:56;5.13;;;4.83;;
13406;SDS011;6774;48.208;10.766;2024-03-02T00:13:25;5.87;;;5.37;;
13406;SDS011;6774;48.208;10.766;2024-03-02T00:15:53;6.20;;;5.30;;
13406;SDS011;6774;48.208;10.766;2024-03-02T00:18:24;5.57;;;5.17;;
13406;SDS011;6774;48.208;10.766;2024-03-02T00:20:54;7.00;;;6.50;;
13406;SDS011;6774;48.208;10.766;2024-03-02T00:23:27;5.80;;;5.30;;
13406;SDS011;6774;48.208;10.766;2024-03-02T00:25:56;6.87;;;4.70;;
13406;SDS011;6774;48.208;10.766;2024-03-02T00:28:26;5.60;;;5.10;;
13406;SDS011;6774;48.208;10.766;2024-03-02T00:30:57;9.97;;;6.30;;
13406;SDS011;6774;48.208;10.766;2024-03-02T00:33:26;5.07;;;4.77;;
13406;SDS011;6774;48.208;10.766;2024-03-02T00:35:55;6.83;;;6.43;;
13406;SDS011;6774;48.208;10.766;2024-03-02T00:38:25;4.87;;;4.50;;
13406;SDS011;6774;48.208;10.766;2024-03-02T00:40:54;4.83;;;4.50;;
13406;SDS011;6774;48.208;10.766;2024-03-02T00:43:39;3.10;;;2.90;;
13406;SDS011;6774;48.208;10.766;2024-03-02T00:46:15;2.60;;;2.50;;
13406;SDS011;6774;48.208;10.766;2024-03-02T00:48:54;4.60;;;4.20;;
13406;SDS011;6774;48.208;10.766;2024-03-02T00:51:23;4.00;;;3.70;;
13406;SDS011;6774;48.208;10.766;2024-03-02T00:53:53;2.77;;;2.57;;
13406;SDS011;6774;48.208;10.766;2024-03-02T00:56:23;3.53;;;3.33;;
13406;SDS011;6774;48.208;10.766;2024-03-02T00:58:52;5.07;;;4.67;;
13406;SDS011;6774;48.208;10.766;2024-03-02T01:01:20;4.43;;;4.23;;
13406;SDS011;6774;48.208;10.766;2024-03-02T01:03:49;4.83;;;4.40;;
13406;SDS011;6774;48.208;10.766;2024-03-02T01:06:17;4.73;;;4.43;;
13406;SDS011;6774;48.208;10.766;2024-03-02T01:08:45;4.30;;;4.00;;
13406;SDS011;6774;48.208;10.766;2024-03-02T01:11:18;4.57;;;4.27;;
13406;SDS011;6774;48.208;10.766;2024-03-02T01:13:49;4.90;;;4.60;;
13406;SDS011;6774;48.208;10.766;2024-03-02T01:16:18;5.07;;;4.67;;
13406;SDS011;6774;48.208;10.766;2024-03-02T01:18:46;4.70;;;4.40;;
13406;SDS011;6774;48.208;10.766;2024-03-02T01:21:14;5.83;;;5.23;;
13406;SDS011;6774;48.208;10.766;2024-03-02T01:23:42;6.17;;;5.57;;
13406;SDS011;6774;48.208;10.766;2024-03-02T01:26:10;5.47;;;4.40;;
13406;SDS011;6774;48.208;10.766;2024-03-02T01:28:39;4.40;;;4.10;;
13406;SDS011;6774;48.208;10.766;2024-03-02T01:31:07;5.33;;;4.83;;
13406;SDS011;6774;48.208;10.766;2024-03-02T01:33:35;6.00;;;5.27;;
13406;SDS011;6774;48.208;10.766;2024-03-02T01:36:03;4.77;;;4.47;;
13406;SDS011;6774;48.208;10.766;2024-03-02T01:38:31;5.63;;;5.20;;
13406;SDS011;6774;48.208;10.766;2024-03-02T01:40:58;5.63;;;5.23;;
13406;SDS011;6774;48.208;10.766;2024-03-02T01:43:26;5.30;;;4.97;;
13406;SDS011;6774;48.208;10.766;2024-03-02T01:45:55;5.60;;;5.20;;
13406;SDS011;6774;48.208;10.766;2024-03-02T01:48:24;6.17;;;5.67;;
13406;SDS011;6774;48.208;10.766;2024-03-02T01:50:52;5.77;;;5.27;;
13406;SDS011;6774;48.208;10.766;2024-03-02T01:53:20;6.67;;;6.17;;
13406;SDS011;6774;48.208;10.766;2024-03-02T01:55:47;6.10;;;5.60;;
13406;SDS011;6774;48.208;10.766;2024-03-02T01:58:15;4.53;;;4.30;;
13406;SDS011;6774;48.208;10.766;2024-03-02T02:00:43;3.87;;;3.67;;
13406;SDS011;6774;48.208;10.766;2024-03-02T02:03:13;3.97;;;3.67;;
13406;SDS011;6774;48.208;10.766;2024-03-02T02:05:41;3.00;;;2.80;;
13406;SDS011;6774;48.208;10.766;2024-03-02T02:08:09;3.50;;;3.20;;
13406;SDS011;6774;48.208;10.766;2024-03-02T02:10:37;4.07;;;3.87;;
13406;SDS011;6774;48.208;10.766;2024-03-02T02:13:05;3.70;;;3.50;;
13406;SDS011;6774;48.208;10.766;2024-03-02T02:15:33;3.67;;;3.47;;
13406;SDS011;6774;48.208;10.766;2024-03-02T02:18:03;4.07;;;3.87;;
13406;SDS011;6774;48.208;10.766;2024-03-02T02:20:32;4.30;;;4.00;;
13406;SDS011;6774;48.208;10.766;2024-03-02T02:23:02;5.30;;;5.00;;
13406;SDS011;6774;48.208;10.766;2024-03-02T02:25:32;3.27;;;3.07;;
13406;SDS011;6774;48.208;10.766;2024-03-02T02:28:00;4.20;;;3.90;;
13406;SDS011;6774;48.208;10.766;2024-03-02T02:30:28;3.50;;;3.30;;
13406;SDS011;6774;48.208;10.766;2024-03-02T02:32:57;3.57;;;3.27;;
13406;SDS011;6774;48.208;10.766;2024-03-02T02:35:26;2.90;;;2.70;;
13406;SDS011;6774;48.208;10.766;2024-03-02T02:37:54;4.03;;;3.83;;
13406;SDS011;6774;48.208;10.766;2024-03-02T02:40:24;4.10;;;3.80;;
13406;SDS011;6774;48.208;10.766;2024-03-02T02:42:52;5.00;;;4.70;;
13406;SDS011;6774;48.208;10.766;2024-03-02T02:45:20;5.03;;;4.70;;
13406;SDS011;6774;48.208;10.766;2024-03-02T02:47:48;4.17;;;3.87;;
13406;SDS011;6774;48.208;10.766;2024-03-02T02:50:16;4.00;;;3.80;;
13406;SDS011;6774;48.208;10.766;2024-03-02T02:52:44;4.93;;;4.63;;
13406;SDS011;6774;48.208;10.766;2024-03-02T02:55:12;3.57;;;3.37;;
13406;SDS011;6774;48.208;10.766;2024-03-02T02:57:43;3.10;;;2.90;;
13406;SDS011;6774;48.208;10.766;2024-03-02T03:00:12;2.70;;;2.60;;
13406;SDS011;6774;48.208;10.766;2024-03-02T03:02:45;3.20;;;3.00;;
13406;SDS011;6774;48.208;10.766;2024-03-02T03:05:16;4.70;;;4.30;;
13406;SDS011;6774;48.208;10.766;2024-03-02T03:07:43;2.80;;;2.60;;
13406;SDS011;6774;48.208;10.766;2024-03-02T03:10:12;3.90;;;3.70;;
13406;SDS011;6774;48.208;10.766;2024-03-02T03:12:41;2.60;;;2.50;;
13406;SDS011;6774;48.208;10.766;2024-03-02T03:15:12;3.17;;;3.07;;
13406;SDS011;6774;48.208;10.766;2024-03-02T03:17:40;3.13;;;2.93;;
13406;SDS011;6774;48.208;10.766;2024-03-02T03:20:08;3.90;;;3.60;;
13406;SDS011;6774;48.208;10.766;2024-03-02T03:22:37;3.40;;;3.20;;
13406;SDS011;6774;48.208;10.766;2024-03-02T03:25:05;4.17;;;3.87;;
13406;SDS011;6774;48.208;10.766;2024-03-02T03:27:34;5.37;;;5.07;;
13406;SDS011;6774;48.208;10.766;2024-03-02T03:30:03;4.97;;;4.67;;
13406;SDS011;6774;48.208;10.766;2024-03-02T03:32:34;7.03;;;6.53;;
13406;SDS011;6774;48.208;10.766;2024-03-02T03:35:01;5.40;;;5.03;;
13406;SDS011;6774;48.208;10.766;2024-03-02T03:37:30;4.70;;;4.13;;
13406;SDS011;6774;48.208;10.766;2024-03-02T03:40:01;3.97;;;3.77;;
13406;SDS011;6774;48.208;10.766;2024-03-02T03:42:33;4.10;;;3.80;;
13406;SDS011;6774;48.208;10.766;2024-03-02T03:45:01;4.17;;;3.97;;
13406;SDS011;6774;48.208;10.766;2024-03-02T03:47:30;4.07;;;3.77;;
13406;SDS011;6774;48.208;10.766;2024-03-02T03:50:00;5.83;;;4.60;;
13406;SDS011;6774;48.208;10.766;2024-03-02T03:52:29;4.60;;;4.30;;
13406;SDS011;6774;48.208;10.766;2024-03-02T03:54:57;4.33;;;4.13;;
13406;SDS011;6774;48.208;10.766;2024-03-02T03:57:25;3.93;;;3.73;;
13406;SDS011;6774;48.208;10.766;2024-03-02T03:59:53;3.87;;;3.67;;
13406;SDS011;6774;48.208;10.766;2024-03-02T04:02:21;4.13;;;3.83;;
13406;SDS011;6774;48.208;10.766;2024-03-02T04:04:48;4.70;;;4.43;;
13406;SDS011;6774;48.208;10.766;2024-03-02T04:07:17;3.73;;;3.53;;
13406;SDS011;6774;48.208;10.766;2024-03-02T04:09:45;4.17;;;3.97;;
13406;SDS011;6774;48.208;10.766;2024-03-02T04:12:13;6.40;;;6.00;;
13406;SDS011;6774;48.208;10.766;2024-03-02T04:14:41;4.10;;;3.90;;
13406;SDS011;6774;48.208;10.766;2024-03-02T04:17:09;5.37;;;5.00;;
13406;SDS011;6774;48.208;10.766;2024-03-02T04:19:37;4.13;;;3.87;;
13406;SDS011;6774;48.208;10.766;2024-03-02T04:22:05;3.47;;;3.27;;
13406;SDS011;6774;48.208;10.766;2024-03-02T04:24:47;4.03;;;3.83;;
13406;SDS011;6774;48.208;10.766;2024-03-02T04:27:15;4.17;;;3.93;;
13406;SDS011;6774;48.208;10.766;2024-03-02T04:29:43;3.83;;;3.57;;
13406;SDS011;6774;48.208;10.766;2024-03-02T04:32:11;4.23;;;3.93;;
13406;SDS011;6774;48.208;10.766;2024-03-02T04:34:38;3.70;;;3.40;;
13406;SDS011;6774;48.208;10.766;2024-03-02T04:37:07;6.17;;;3.63;;
13406;SDS011;6774;48.208;10.766;2024-03-02T04:39:34;5.70;;;5.20;;
13406;SDS011;6774;48.208;10.766;2024-03-02T04:42:04;4.07;;;3.87;;
13406;SDS011;6774;48.208;10.766;2024-03-02T04:44:32;4.87;;;4.57;;
13406;SDS011;6774;48.208;10.766;2024-03-02T04:47:00;3.93;;;3.73;;
13406;SDS011;6774;48.208;10.766;2024-03-02T04:49:28;5.17;;;4.87;;
13406;SDS011;6774;48.208;10.766;2024-03-02T04:51:56;4.87;;;4.63;;
13406;SDS011;6774;48.208;10.766;2024-03-02T04:54:24;3.23;;;3.03;;
13406;SDS011;6774;48.208;10.766;2024-03-02T04:56:52;5.07;;;4.73;;
13406;SDS011;6774;48.208;10.766;2024-03-02T04:59:21;3.57;;;3.37;;
13406;SDS011;6774;48.208;10.766;2024-03-02T05:01:49;4.13;;;3.93;;
13406;SDS011;6774;48.208;10.766;2024-03-02T05:04:17;4.60;;;4.30;;
13406;SDS011;6774;48.208;10.766;2024-03-02T05:06:45;5.60;;;5.20;;
13406;SDS011;6774;48.208;10.766;2024-03-02T05:09:19;5.63;;;5.33;;
13406;SDS011;6774;48.208;10.766;2024-03-02T05:11:47;4.47;;;4.17;;
13406;SDS011;6774;48.208;10.766;2024-03-02T05:14:51;5.07;;;4.77;;
13406;SDS011;6774;48.208;10.766;2024-03-02T05:17:19;4.73;;;4.47;;
13406;SDS011;6774;48.208;10.766;2024-03-02T05:19:46;4.90;;;4.60;;
13406;SDS011;6774;48.208;10.766;2024-03-02T05:22:14;5.10;;;4.80;;
13406;SDS011;6774;48.208;10.766;2024-03-02T05:24:43;4.50;;;4.30;;
13406;SDS011;6774;48.208;10.766;2024-03-02T05:27:11;5.33;;;5.03;;
13406;SDS011;6774;48.208;10.766;2024-03-02T05:29:38;5.17;;;4.87;;
13406;SDS011;6774;48.208;10.766;2024-03-02T05:32:08;3.97;;;3.77;;
13406;SDS011;6774;48.208;10.766;2024-03-02T05:34:35;5.20;;;4.80;;
13406;SDS011;6774;48.208;10.766;2024-03-02T05:37:03;5.13;;;4.77;;
13406;SDS011;6774;48.208;10.766;2024-03-02T05:39:31;4.40;;;4.20;;
13406;SDS011;6774;48.208;10.766;2024-03-02T05:41:59;5.63;;;5.03;;
13406;SDS011;6774;48.208;10.766;2024-03-02T05:44:27;4.83;;;4.53;;
13406;SDS011;6774;48.208;10.766;2024-03-02T05:46:55;6.07;;;4.97;;
13406;SDS011;6774;48.208;10.766;2024-03-02T05:49:24;4.90;;;4.60;;
13406;SDS011;6774;48.208;10.766;2024-03-02T05:51:51;4.40;;;4.10;;
13406;SDS011;6774;48.208;10.766;2024-03-02T05:54:19;5.80;;;5.37;;
13406;SDS011;6774;48.208;10.766;2024-03-02T05:56:47;5.50;;;5.00;;
13406;SDS011;6774;48.208;10.766;2024-03-02T05:59:15;4.97;;;4.60;;
13406;SDS011;6774;48.208;10.766;2024-03-02T06:01:43;5.13;;;4.83;;
13406;SDS011;6774;48.208;10.766;2024-03-02T06:04:12;4.77;;;4.47;;
13406;SDS011;6774;48.208;10.766;2024-03-02T06:06:42;4.00;;;3.80;;
13406;SDS011;6774;48.208;10.766;2024-03-02T06:09:10;4.20;;;3.90;;
13406;SDS011;6774;48.208;10.766;2024-03-02T06:11:40;4.50;;;4.10;;
13406;SDS011;6774;48.208;10.766;2024-03-02T06:14:08;3.93;;;3.73;;
13406;SDS011;6774;48.208;10.766;2024-03-02T06:16:36;4.30;;;4.00;;
13406;SDS011;6774;48.208;10.766;2024-03-02T06:19:04;3.37;;;3.17;;
13406;SDS011;6774;48.208;10.766;2024-03-02T06:21:33;4.23;;;4.03;;
13406;SDS011;6774;48.208;10.766;2024-03-02T06:24:03;4.93;;;4.53;;
13406;SDS011;6774;48.208;10.766;2024-03-02T06:26:31;4.20;;;3.80;;
13406;SDS011;6774;48.208;10.766;2024-03-02T06:28:59;3.20;;;3.00;;
13406;SDS011;6774;48.208;10.766;2024-03-02T06:31:28;3.47;;;3.20;;
13406;SDS011;6774;48.208;10.766;2024-03-02T06:33:56;2.57;;;2.47;;
13406;SDS011;6774;48.208;10.766;2024-03-02T06:36:24;1.83;;;1.73;;
13406;SDS011;6774;48.208;10.766;2024-03-02T06:38:52;2.23;;;2.13;;
13406;SDS011;6774;48.208;10.766;2024-03-02T06:41:21;3.13;;;2.93;;
13406;SDS011;6774;48.208;10.766;2024-03-02T06:43:49;3.17;;;2.97;;
13406;SDS011;6774;48.208;10.766;2024-03-02T06:46:17;2.80;;;2.60;;
13406;SDS011;6774;48.208;10.766;2024-03-02T06:48:44;3.37;;;3.20;;
13406;SDS011;6774;48.208;10.766;2024-03-02T06:51:13;3.30;;;3.10;;
13406;SDS011;6774;48.208;10.766;2024-03-02T06:53:42;3.30;;;3.00;;
13406;SDS011;6774;48.208;10.766;2024-03-02T06:56:10;3.77;;;3.47;;
13406;SDS011;6774;48.208;10.766;2024-03-02T06:58:39;2.63;;;2.47;;
13406;SDS011;6774;48.208;10.766;2024-03-02T07:01:06;4.20;;;3.03;;
13406;SDS011;6774;48.208;10.766;2024-03-02T07:03:34;3.07;;;2.87;;
13406;SDS011;6774;48.208;10.766;2024-03-02T07:06:02;2.70;;;2.60;;
13406;SDS011;6774;48.208;10.766;2024-03-02T07:08:31;3.47;;;3.37;;
13406;SDS011;6774;48.208;10.766;2024-03-02T07:10:58;3.40;;;3.20;;
13406;SDS011;6774;48.208;10.766;2024-03-02T07:13:27;5.07;;;4.77;;
13406;SDS011;6774;48.208;10.766;2024-03-02T07:15:56;4.83;;;4.60;;
13406;SDS011;6774;48.208;10.766;2024-03-02T07:18:49;3.50;;;3.30;;
13406;SDS011;6774;48.208;10.766;2024-03-02T07:21:18;5.63;;;5.33;;
13406;SDS011;6774;48.208;10.766;2024-03-02T07:23:47;3.43;;;3.23;;
13406;SDS011;6774;48.208;10.766;2024-03-02T07:26:15;4.77;;;4.47;;
13406;SDS011;6774;48.208;10.766;2024-03-02T07:28:47;5.27;;;4.87;;
13406;SDS011;6774;48.208;10.766;2024-03-02T07:31:17;3.93;;;3.73;;
13406;SDS011;6774;48.208;10.766;2024-03-02T07:33:45;3.83;;;3.60;;
13406;SDS011;6774;48.208;10.766;2024-03-02T07:36:14;5.40;;;5.00;;
13406;SDS011;6774;48.208;10.766;2024-03-02T07:38:42;4.10;;;3.83;;
13406;SDS011;6774;48.208;10.766;2024-03-02T07:41:11;4.90;;;4.53;;
13406;SDS011;6774;48.208;10.766;2024-03-02T07:43:39;4.20;;;3.90;;
13406;SDS011;6774;48.208;10.766;2024-03-02T07:46:07;4.73;;;4.30;;
13406;SDS011;6774;48.208;10.766;2024-03-02T07:48:36;3.57;;;3.37;;
13406;SDS011;6774;48.208;10.766;2024-03-02T07:51:04;3.53;;;3.27;;
13406;SDS011;6774;48.208;10.766;2024-03-02T07:53:32;3.17;;;2.97;;
13406;SDS011;6774;48.208;10.766;2024-03-02T07:55:59;3.77;;;3.20;;
13406;SDS011;6774;48.208;10.766;2024-03-02T07:58:29;2.40;;;2.30;;
13406;SDS011;6774;48.208;10.766;2024-03-02T08:00:58;3.30;;;3.10;;
13406;SDS011;6774;48.208;10.766;2024-03-02T08:03:28;4.47;;;4.17;;
13406;SDS011;6774;48.208;10.766;2024-03-02T08:05:57;3.80;;;3.50;;
13406;SDS011;6774;48.208;10.766;2024-03-02T08:08:25;3.07;;;2.80;;
13406;SDS011;6774;48.208;10.766;2024-03-02T08:10:53;3.40;;;3.20;;
13406;SDS011;6774;48.208;10.766;2024-03-02T08:13:21;2.57;;;2.47;;
13406;SDS011;6774;48.208;10.766;2024-03-02T08:15:49;2.40;;;2.13;;
13406;SDS011;6774;48.208;10.766;2024-03-02T08:18:17;4.43;;;4.13;;
13406;SDS011;6774;48.208;10.766;2024-03-02T08:20:45;2.70;;;2.53;;
13406;SDS011;6774;48.208;10.766;2024-03-02T08:23:14;2.80;;;2.60;;
13406;SDS011;6774;48.208;10.766;2024-03-02T08:25:42;4.00;;;3.70;;
13406;SDS011;6774;48.208;10.766;2024-03-02T08:28:11;2.37;;;1.83;;
13406;SDS011;6774;48.208;10.766;2024-03-02T08:30:39;1.87;;;1.70;;
13406;SDS011;6774;48.208;10.766;2024-03-02T08:33:06;3.33;;;1.30;;
13406;SDS011;6774;48.208;10.766;2024-03-02T08:35:34;2.63;;;2.43;;
13406;SDS011;6774;48.208;10.766;2024-03-02T08:38:02;2.30;;;2.10;;
13406;SDS011;6774;48.208;10.766;2024-03-02T08:40:32;1.70;;;1.60;;
13406;SDS011;6774;48.208;10.766;2024-03-02T08:43:00;1.63;;;1.53;;
13406;SDS011;6774;48.208;10.766;2024-03-02T08:45:28;1.17;;;1.10;;
13406;SDS011;6774;48.208;10.766;2024-03-02T08:47:56;1.67;;;1.53;;
13406;SDS011;6774;48.208;10.766;2024-03-02T08:50:24;1.77;;;1.67;;
13406;SDS011;6774;48.208;10.766;2024-03-02T08:52:52;0.70;;;0.70;;
13406;SDS011;6774;48.208;10.766;2024-03-02T08:55:20;1.33;;;1.23;;
13406;SDS011;6774;48.208;10.766;2024-03-02T08:57:49;1.47;;;1.27;;
13406;SDS011;6774;48.208;10.766;2024-03-02T09:00:17;1.40;;;1.30;;
13406;SDS011;6774;48.208;10.766;2024-03-02T09:02:45;0.80;;;0.80;;
13406;SDS011;6774;48.208;10.766;2024-03-02T09:05:13;3.60;;;0.90;;
13406;SDS011;6774;48.208;10.766;2024-03-02T09:07:41;1.00;;;1.00;;
13406;SDS011;6774;48.208;10.766;2024-03-02T09:10:09;0.73;;;0.53;;
13406;SDS011;6774;48.208;10.766;2024-03-02T09:12:37;0.93;;;0.87;;
13406;SDS011;6774;48.208;10.766;2024-03-02T09:15:07;1.50;;;1.40;;
13406;SDS011;6774;48.208;10.766;2024-03-02T09:17:35;0.93;;;0.93;;
13406;SDS011;6774;48.208;10.766;2024-03-02T09:20:04;1.70;;;1.60;;
13406;SDS011;6774;48.208;10.766;2024-03-02T09:22:32;5.03;;;2.70;;
13406;SDS011;6774;48.208;10.766;2024-03-02T09:25:00;2.47;;;2.23;;
13406;SDS011;6774;48.208;10.766;2024-03-02T09:27:28;1.37;;;0.97;;
13406;SDS011;6774;48.208;10.766;2024-03-02T09:29:56;0.57;;;0.57;;
13406;SDS011;6774;48.208;10.766;2024-03-02T09:32:25;2.67;;;0.93;;
13406;SDS011;6774;48.208;10.766;2024-03-02T09:34:53;1.67;;;1.20;;
13406;SDS011;6774;48.208;10.766;2024-03-02T09:37:22;1.10;;;1.00;;
13406;SDS011;6774;48.208;10.766;2024-03-02T09:39:50;0.60;;;0.60;;
13406;SDS011;6774;48.208;10.766;2024-03-02T09:42:18;1.27;;;1.17;;
13406;SDS011;6774;48.208;10.766;2024-03-02T09:44:50;1.77;;;1.67;;
13406;SDS011;6774;48.208;10.766;2024-03-02T09:47:18;3.17;;;1.33;;
13406;SDS011;6774;48.208;10.766;2024-03-02T09:49:47;1.57;;;1.47;;
13406;SDS011;6774;48.208;10.766;2024-03-02T09:52:15;0.70;;;0.70;;
13406;SDS011;6774;48.208;10.766;2024-03-02T09:54:43;0.77;;;0.77;;
13406;SDS011;6774;48.208;10.766;2024-03-02T09:57:11;5.20;;;1.57;;
13406;SDS011;6774;48.208;10.766;2024-03-02T09:59:39;0.50;;;0.50;;
13406;SDS011;6774;48.208;10.766;2024-03-02T10:02:07;0.80;;;0.80;;
13406;SDS011;6774;48.208;10.766;2024-03-02T10:04:35;0.90;;;0.90;;
13406;SDS011;6774;48.208;10.766;2024-03-02T10:07:13;1.13;;;0.60;;
13406;SDS011;6774;48.208;10.766;2024-03-02T10:09:43;2.20;;;0.83;;
13406;SDS011;6774;48.208;10.766;2024-03-02T10:12:13;1.20;;;1.17;;
13406;SDS011;6774;48.208;10.766;2024-03-02T10:14:41;0.70;;;0.30;;
13406;SDS011;6774;48.208;10.766;2024-03-02T10:17:10;0.40;;;0.40;;
13406;SDS011;6774;48.208;10.766;2024-03-02T10:19:39;0.80;;;0.80;;
13406;SDS011;6774;48.208;10.766;2024-03-02T10:22:07;0.40;;;0.40;;
13406;SDS011;6774;48.208;10.766;2024-03-02T10:24:38;0.50;;;0.50;;
13406;SDS011;6774;48.208;10.766;2024-03-02T10:27:08;0.33;;;0.33;;
13406;SDS011;6774;48.208;10.766;2024-03-02T10:29:37;0.37;;;0.37;;
13406;SDS011;6774;48.208;10.766;2024-03-02T10:32:09;0.40;;;0.30;;
13406;SDS011;6774;48.208;10.766;2024-03-02T10:34:39;0.60;;;0.50;;
13406;SDS011;6774;48.208;10.766;2024-03-02T10:37:08;0.33;;;0.33;;
13406;SDS011;6774;48.208;10.766;2024-03-02T10:39:39;1.17;;;0.40;;
13406;SDS011;6774;48.208;10.766;2024-03-02T10:42:07;0.50;;;0.50;;
13406;SDS011;6774;48.208;10.766;2024-03-02T10:44:36;0.33;;;0.33;;
13406;SDS011;6774;48.208;10.766;2024-03-02T10:47:04;2.60;;;0.50;;
13406;SDS011;6774;48.208;10.766;2024-03-02T10:49:32;0.60;;;0.60;;
13406;SDS011;6774;48.208;10.766;2024-03-02T10:52:01;0.83;;;0.50;;
13406;SDS011;6774;48.208;10.766;2024-03-02T10:54:29;0.57;;;0.57;;
13406;SDS011;6774;48.208;10.766;2024-03-02T10:57:04;0.50;;;0.40;;
13406;SDS011;6774;48.208;10.766;2024-03-02T10:59:36;0.50;;;0.50;;
13406;SDS011;6774;48.208;10.766;2024-03-02T11:02:06;0.80;;;0.80;;
13406;SDS011;6774;48.208;10.766;2024-03-02T11:04:37;0.73;;;0.50;;
13406;SDS011;6774;48.208;10.766;2024-03-02T11:07:08;0.53;;;0.50;;
13406;SDS011;6774;48.208;10.766;2024-03-02T11:09:39;0.40;;;0.40;;
13406;SDS011;6774;48.208;10.766;2024-03-02T11:12:12;1.50;;;0.57;;
13406;SDS011;6774;48.208;10.766;2024-03-02T11:14:44;0.30;;;0.30;;
13406;SDS011;6774;48.208;10.766;2024-03-02T11:17:13;0.70;;;0.37;;
13406;SDS011;6774;48.208;10.766;2024-03-02T11:19:43;0.60;;;0.60;;
13406;SDS011;6774;48.208;10.766;2024-03-02T11:22:12;0.53;;;0.40;;
13406;SDS011;6774;48.208;10.766;2024-03-02T11:24:47;0.20;;;0.20;;
13406;SDS011;6774;48.208;10.766;2024-03-02T11:27:20;0.50;;;0.47;;
13406;SDS011;6774;48.208;10.766;2024-03-02T11:33:25;0.87;;;0.63;;
13406;SDS011;6774;48.208;10.766;2024-03-02T11:35:56;0.67;;;0.30;;
13406;SDS011;6774;48.208;10.766;2024-03-02T11:38:29;0.63;;;0.60;;
13406;SDS011;6774;48.208;10.766;2024-03-02T11:40:59;2.20;;;0.80;;
13406;SDS011;6774;48.208;10.766;2024-03-02T11:43:29;0.50;;;0.50;;
13406;SDS011;6774;48.208;10.766;2024-03-02T11:45:59;0.70;;;0.70;;
13406;SDS011;6774;48.208;10.766;2024-03-02T11:48:31;1.33;;;1.23;;
13406;SDS011;6774;48.208;10.766;2024-03-02T11:51:00;0.40;;;0.33;;
13406;SDS011;6774;48.208;10.766;2024-03-02T11:53:28;0.20;;;0.20;;
13406;SDS011;6774;48.208;10.766;2024-03-02T11:56:01;0.70;;;0.70;;
13406;SDS011;6774;48.208;10.766;2024-03-02T11:58:30;0.40;;;0.40;;
13406;SDS011;6774;48.208;10.766;2024-03-02T12:00:58;0.33;;;0.30;;
13406;SDS011;6774;48.208;10.766;2024-03-02T12:03:26;0.70;;;0.70;;
13406;SDS011;6774;48.208;10.766;2024-03-02T12:05:55;1.13;;;1.13;;
13406;SDS011;6774;48.208;10.766;2024-03-02T12:08:22;0.70;;;0.70;;
13406;SDS011;6774;48.208;10.766;2024-03-02T12:10:57;2.17;;;2.07;;
13406;SDS011;6774;48.208;10.766;2024-03-02T12:13:27;18.13;;;2.37;;
13406;SDS011;6774;48.208;10.766;2024-03-02T12:15:57;2.80;;;2.60;;
13406;SDS011;6774;48.208;10.766;2024-03-02T12:18:25;2.23;;;2.13;;
13406;SDS011;6774;48.208;10.766;2024-03-02T12:20:53;2.07;;;1.90;;
13406;SDS011;6774;48.208;10.766;2024-03-02T12:23:24;2.97;;;2.67;;
13406;SDS011;6774;48.208;10.766;2024-03-02T12:25:52;2.10;;;2.00;;
13406;SDS011;6774;48.208;10.766;2024-03-02T12:28:21;1.63;;;1.53;;
13406;SDS011;6774;48.208;10.766;2024-03-02T12:30:49;1.93;;;1.83;;
13406;SDS011;6774;48.208;10.766;2024-03-02T12:33:19;1.53;;;1.43;;
13406;SDS011;6774;48.208;10.766;2024-03-02T12:35:48;2.03;;;1.93;;
13406;SDS011;6774;48.208;10.766;2024-03-02T12:38:16;2.83;;;2.63;;
13406;SDS011;6774;48.208;10.766;2024-03-02T12:40:44;1.77;;;1.67;;
13406;SDS011;6774;48.208;10.766;2024-03-02T12:43:12;2.10;;;2.00;;
13406;SDS011;6774;48.208;10.766;2024-03-02T12:45:40;1.80;;;1.70;;
13406;SDS011;6774;48.208;10.766;2024-03-02T12:48:08;3.57;;;3.37;;
13406;SDS011;6774;48.208;10.766;2024-03-02T12:50:37;2.53;;;2.33;;
13406;SDS011;6774;48.208;10.766;2024-03-02T12:53:05;2.77;;;2.17;;
13406;SDS011;6774;48.208;10.766;2024-03-02T12:55:32;2.33;;;2.23;;
13406;SDS011;6774;48.208;10.766;2024-03-02T12:58:00;2.40;;;2.27;;
13406;SDS011;6774;48.208;10.766;2024-03-02T13:00:29;8.27;;;4.30;;
13406;SDS011;6774;48.208;10.766;2024-03-02T13:03:01;3.97;;;3.77;;
13406;SDS011;6774;48.208;10.766;2024-03-02T13:05:30;3.97;;;3.77;;
13406;SDS011;6774;48.208;10.766;2024-03-02T13:07:59;4.30;;;4.00;;
13406;SDS011;6774;48.208;10.766;2024-03-02T13:10:29;5.10;;;4.73;;
13406;SDS011;6774;48.208;10.766;2024-03-02T13:12:58;4.97;;;4.67;;
13406;SDS011;6774;48.208;10.766;2024-03-02T13:15:26;4.57;;;4.27;;
13406;SDS011;6774;48.208;10.766;2024-03-02T13:17:54;4.70;;;4.40;;
13406;SDS011;6774;48.208;10.766;2024-03-02T13:20:29;7.33;;;4.30;;
13406;SDS011;6774;48.208;10.766;2024-03-02T13:22:59;4.40;;;4.10;;
13406;SDS011;6774;48.208;10.766;2024-03-02T13:25:27;5.27;;;4.77;;
13406;SDS011;6774;48.208;10.766;2024-03-02T13:27:58;4.83;;;4.53;;
13406;SDS011;6774;48.208;10.766;2024-03-02T13:30:27;4.40;;;4.10;;
13406;SDS011;6774;48.208;10.766;2024-03-02T13:32:55;5.13;;;4.83;;
13406;SDS011;6774;48.208;10.766;2024-03-02T13:35:22;4.60;;;4.27;;
13406;SDS011;6774;48.208;10.766;2024-03-02T13:37:50;6.07;;;5.60;;
13406;SDS011;6774;48.208;10.766;2024-03-02T13:40:20;5.60;;;5.20;;
13406;SDS011;6774;48.208;10.766;2024-03-02T13:42:48;5.43;;;4.93;;
13406;SDS011;6774;48.208;10.766;2024-03-02T13:45:17;4.47;;;4.27;;
13406;SDS011;6774;48.208;10.766;2024-03-02T13:47:45;7.83;;;7.33;;
13406;SDS011;6774;48.208;10.766;2024-03-02T13:50:13;5.77;;;5.33;;
13406;SDS011;6774;48.208;10.766;2024-03-02T13:52:40;5.73;;;5.33;;
13406;SDS011;6774;48.208;10.766;2024-03-02T13:55:08;5.93;;;5.57;;
13406;SDS011;6774;48.208;10.766;2024-03-02T13:57:37;7.93;;;7.23;;
13406;SDS011;6774;48.208;10.766;2024-03-02T14:00:06;5.17;;;4.77;;
13406;SDS011;6774;48.208;10.766;2024-03-02T14:02:38;5.23;;;4.83;;
13406;SDS011;6774;48.208;10.766;2024-03-02T14:05:06;5.70;;;5.10;;
13406;SDS011;6774;48.208;10.766;2024-03-02T14:07:37;5.33;;;4.87;;
13406;SDS011;6774;48.208;10.766;2024-03-02T14:10:05;6.37;;;5.80;;
13406;SDS011;6774;48.208;10.766;2024-03-02T14:12:33;7.60;;;6.90;;
13406;SDS011;6774;48.208;10.766;2024-03-02T14:15:03;7.20;;;6.60;;
13406;SDS011;6774;48.208;10.766;2024-03-02T14:17:31;7.07;;;6.57;;
13406;SDS011;6774;48.208;10.766;2024-03-02T14:19:59;9.00;;;8.20;;
13406;SDS011;6774;48.208;10.766;2024-03-02T14:22:27;14.87;;;8.10;;
13406;SDS011;6774;48.208;10.766;2024-03-02T14:24:55;9.17;;;8.27;;
13406;SDS011;6774;48.208;10.766;2024-03-02T14:27:23;9.03;;;8.37;;
13406;SDS011;6774;48.208;10.766;2024-03-02T14:30:13;8.87;;;8.00;;
13406;SDS011;6774;48.208;10.766;2024-03-02T14:32:41;9.47;;;8.47;;
13406;SDS011;6774;48.208;10.766;2024-03-02T14:35:09;8.70;;;7.90;;
13406;SDS011;6774;48.208;10.766;2024-03-02T14:37:37;6.67;;;6.07;;
13406;SDS011;6774;48.208;10.766;2024-03-02T14:40:06;8.23;;;7.60;;
13406;SDS011;6774;48.208;10.766;2024-03-02T14:42:36;8.77;;;7.87;;
13406;SDS011;6774;48.208;10.766;2024-03-02T14:45:05;10.33;;;9.53;;
13406;SDS011;6774;48.208;10.766;2024-03-02T14:47:34;8.43;;;7.63;;
13406;SDS011;6774;48.208;10.766;2024-03-02T14:50:02;9.07;;;8.23;;
13406;SDS011;6774;48.208;10.766;2024-03-02T14:52:32;8.07;;;7.27;;
13406;SDS011;6774;48.208;10.766;2024-03-02T14:55:00;8.60;;;7.60;;
13406;SDS011;6774;48.208;10.766;2024-03-02T14:57:29;9.57;;;8.80;;
13406;SDS011;6774;48.208;10.766;2024-03-02T14:59:57;32.00;;;25.23;;
13406;SDS011;6774;48.208;10.766;2024-03-02T15:02:25;18.57;;;15.43;;